createdAt,value
2018-04-17T00:00:27.800Z,10.22
2018-04-17T00:01:27.800Z,10.24
2018-04-17T00:02:27.841Z,10.24
2018-04-17T00:03:27.784Z,10.24
2018-04-17T00:04:27.778Z,10.18
2018-04-17T00:05:27.771Z,10.14
2018-04-17T00:06:27.766Z,10.17
2018-04-17T00:07:27.764Z,10.22
2018-04-17T00:08:27.761Z,10.16
2018-04-17T00:09:27.757Z,10.13
2018-04-17T00:10:27.752Z,10.16
2018-04-17T00:11:27.741Z,10.06
2018-04-17T00:12:27.739Z,10.04
2018-04-17T00:13:27.731Z,10.07
2018-04-17T00:14:27.723Z,10.07
2018-04-17T00:15:27.717Z,10.07
2018-04-17T00:16:27.712Z,10.10
2018-04-17T00:17:27.708Z,10.18
2018-04-17T00:18:27.700Z,10.13
2018-04-17T00:19:27.698Z,10.18
2018-04-17T00:20:27.694Z,10.10
2018-04-17T00:21:27.687Z,10.10
2018-04-17T00:22:27.682Z,10.16
2018-04-17T00:23:27.673Z,10.09
2018-04-17T00:24:27.667Z,10.10
2018-04-17T00:25:27.661Z,10.14
2018-04-17T00:26:27.656Z,10.10
2018-04-17T00:27:27.649Z,10.13
2018-04-17T00:28:27.645Z,10.13
2018-04-17T00:29:27.640Z,10.10
2018-04-17T00:30:27.632Z,10.10
2018-04-17T00:31:27.630Z,10.13
2018-04-17T00:32:27.676Z,9.98
2018-04-17T00:33:27.619Z,9.95
2018-04-17T00:34:27.614Z,9.91
2018-04-17T00:35:27.604Z,9.95
2018-04-17T00:36:27.598Z,9.93
2018-04-17T00:37:27.593Z,9.92
2018-04-17T00:38:27.588Z,9.88
2018-04-17T00:39:27.586Z,9.85
2018-04-17T00:40:27.580Z,9.73
2018-04-17T00:41:27.570Z,9.74
2018-04-17T00:42:27.563Z,9.65
2018-04-17T00:43:27.562Z,9.62
2018-04-17T00:44:27.554Z,9.68
2018-04-17T00:45:27.547Z,9.68
2018-04-17T00:46:27.541Z,9.68
2018-04-17T00:47:27.536Z,9.63
2018-04-17T00:48:27.534Z,9.71
2018-04-17T00:49:27.523Z,9.62
2018-04-17T00:50:27.518Z,9.49
2018-04-17T00:51:27.516Z,9.41
2018-04-17T00:52:27.515Z,9.40
2018-04-17T00:53:27.505Z,9.45
2018-04-17T00:54:27.499Z,9.50
2018-04-17T00:55:27.490Z,9.45
2018-04-17T00:56:27.484Z,9.55
2018-04-17T00:57:27.480Z,9.53
2018-04-17T00:58:27.473Z,9.52
2018-04-17T00:59:27.470Z,9.49
2018-04-17T01:00:27.463Z,9.49
2018-04-17T01:01:27.458Z,9.58
2018-04-17T01:02:27.449Z,9.45
2018-04-17T01:03:27.443Z,9.49
2018-04-17T01:04:27.437Z,9.42
2018-04-17T01:05:27.434Z,9.35
2018-04-17T01:06:27.429Z,9.35
2018-04-17T01:07:27.419Z,9.35
2018-04-17T01:08:27.414Z,9.40
2018-04-17T01:09:27.407Z,9.40
2018-04-17T01:10:27.401Z,9.45
2018-04-17T01:11:27.401Z,9.45
2018-04-17T01:12:27.394Z,9.55
2018-04-17T01:13:27.383Z,9.53
2018-04-17T01:14:27.377Z,9.45
2018-04-17T01:15:27.372Z,9.44
2018-04-17T01:16:27.366Z,9.40
2018-04-17T01:17:27.359Z,9.27
2018-04-17T01:18:27.353Z,9.27
2018-04-17T01:19:27.347Z,9.26
2018-04-17T01:20:27.341Z,9.26
2018-04-17T01:21:27.333Z,9.27
2018-04-17T01:22:27.331Z,9.30
2018-04-17T01:23:27.327Z,9.24
2018-04-17T01:24:27.320Z,9.26
2018-04-17T01:25:27.314Z,9.26
2018-04-17T01:26:27.308Z,9.30
2018-04-17T01:27:27.298Z,9.32
2018-04-17T01:28:27.292Z,9.31
2018-04-17T01:29:27.285Z,9.31
2018-04-17T01:30:27.280Z,9.26
2018-04-17T01:31:27.273Z,9.27
2018-04-17T01:32:27.268Z,9.24
2018-04-17T01:33:27.260Z,9.26
2018-04-17T01:34:27.254Z,9.24
2018-04-17T01:35:27.248Z,9.23
2018-04-17T01:36:27.243Z,9.30
2018-04-17T01:37:27.239Z,9.32
2018-04-17T01:38:27.234Z,9.27
2018-04-17T01:39:27.224Z,9.27
2018-04-17T01:40:27.217Z,9.30
2018-04-17T01:41:27.210Z,9.32
2018-04-17T01:42:27.204Z,9.26
2018-04-17T01:43:27.198Z,9.30
2018-04-17T01:44:27.193Z,9.22
2018-04-17T01:45:27.188Z,9.13
2018-04-17T01:46:27.183Z,9.10
2018-04-17T01:47:27.173Z,9.13
2018-04-17T01:48:27.168Z,8.98
2018-04-17T01:49:27.164Z,8.96
2018-04-17T01:50:27.158Z,8.94
2018-04-17T01:51:27.149Z,8.89
2018-04-17T01:52:27.141Z,8.86
2018-04-17T01:53:27.136Z,8.88
2018-04-17T01:54:27.131Z,8.83
2018-04-17T01:55:27.125Z,8.89
2018-04-17T01:56:27.119Z,8.79
2018-04-17T01:57:27.151Z,8.75
2018-04-17T01:58:27.105Z,8.68
2018-04-17T01:59:27.099Z,8.79
2018-04-17T02:00:27.095Z,8.75
2018-04-17T02:01:27.087Z,8.78
2018-04-17T02:02:27.083Z,8.75
2018-04-17T02:03:27.080Z,8.78
2018-04-17T02:04:27.073Z,8.76
2018-04-17T02:05:27.062Z,8.70
2018-04-17T02:06:27.055Z,8.82
2018-04-17T02:07:27.052Z,8.78
2018-04-17T02:08:27.047Z,8.71
2018-04-17T02:09:27.037Z,8.82
2018-04-17T02:10:27.074Z,8.75
2018-04-17T02:11:27.024Z,8.76
2018-04-17T02:12:27.020Z,8.88
2018-04-17T02:13:27.010Z,8.86
2018-04-17T02:14:27.005Z,8.88
2018-04-17T02:15:26.998Z,8.85
2018-04-17T02:16:26.991Z,8.83
2018-04-17T02:17:26.987Z,8.80
2018-04-17T02:18:26.981Z,8.78
2018-04-17T02:19:26.973Z,8.73
2018-04-17T02:20:26.965Z,8.71
2018-04-17T02:21:26.962Z,8.71
2018-04-17T02:22:26.955Z,8.75
2018-04-17T02:23:26.946Z,8.63
2018-04-17T02:24:26.937Z,8.64
2018-04-17T02:25:26.932Z,8.55
2018-04-17T02:26:26.924Z,8.57
2018-04-17T02:27:26.918Z,8.61
2018-04-17T02:28:26.912Z,8.58
2018-04-17T02:29:26.907Z,8.67
2018-04-17T02:30:26.904Z,8.58
2018-04-17T02:31:26.894Z,8.61
2018-04-17T02:32:26.886Z,8.63
2018-04-17T02:33:26.879Z,8.61
2018-04-17T02:34:26.871Z,8.61
2018-04-17T02:35:26.870Z,8.57
2018-04-17T02:36:26.863Z,8.58
2018-04-17T02:37:26.853Z,8.58
2018-04-17T02:38:26.845Z,8.58
2018-04-17T02:39:26.843Z,8.55
2018-04-17T02:40:26.836Z,8.55
2018-04-17T02:41:26.825Z,8.57
2018-04-17T02:42:26.822Z,8.55
2018-04-17T02:43:26.813Z,8.52
2018-04-17T02:44:26.806Z,8.55
2018-04-17T02:45:26.797Z,8.46
2018-04-17T02:46:26.792Z,8.52
2018-04-17T02:47:26.788Z,8.60
2018-04-17T02:48:26.782Z,8.45
2018-04-17T02:49:26.774Z,8.55
2018-04-17T02:50:26.765Z,8.49
2018-04-17T02:51:26.762Z,8.47
2018-04-17T02:52:26.751Z,8.49
2018-04-17T02:53:26.743Z,8.42
2018-04-17T02:54:26.736Z,8.46
2018-04-17T02:55:26.734Z,8.45
2018-04-17T02:56:26.724Z,8.45
2018-04-17T02:57:26.715Z,8.49
2018-04-17T02:58:26.709Z,8.39
2018-04-17T02:59:26.706Z,8.46
2018-04-17T03:00:26.700Z,8.39
2018-04-17T03:01:26.691Z,8.42
2018-04-17T03:02:26.684Z,8.42
2018-04-17T03:03:26.675Z,8.42
2018-04-17T03:04:26.667Z,8.47
2018-04-17T03:05:26.662Z,8.40
2018-04-17T03:06:26.654Z,8.42
2018-04-17T03:07:26.646Z,8.43
2018-04-17T03:08:26.639Z,8.42
2018-04-17T03:09:26.633Z,8.46
2018-04-17T03:10:26.626Z,8.45
2018-04-17T03:11:26.618Z,8.46
2018-04-17T03:12:26.612Z,8.43
2018-04-17T03:13:26.609Z,8.42
2018-04-17T03:14:26.602Z,8.54
2018-04-17T03:15:26.590Z,8.42
2018-04-17T03:16:26.584Z,8.52
2018-04-17T03:17:26.577Z,8.47
2018-04-17T03:18:26.570Z,8.52
2018-04-17T03:19:26.568Z,8.52
2018-04-17T03:20:26.561Z,8.61
2018-04-17T03:21:26.549Z,8.58
2018-04-17T03:22:26.543Z,8.57
2018-04-17T03:23:26.537Z,8.64
2018-04-17T03:24:26.531Z,8.68
2018-04-17T03:25:26.525Z,8.65
2018-04-17T03:26:26.524Z,8.60
2018-04-17T03:27:26.509Z,8.64
2018-04-17T03:28:26.503Z,8.58
2018-04-17T03:29:26.495Z,8.61
2018-04-17T03:30:26.488Z,8.67
2018-04-17T03:31:26.491Z,8.70
2018-04-17T03:32:26.482Z,8.67
2018-04-17T03:33:26.470Z,8.75
2018-04-17T03:34:26.464Z,8.67
2018-04-17T03:35:26.453Z,8.63
2018-04-17T03:36:26.448Z,8.58
2018-04-17T03:37:26.440Z,8.57
2018-04-17T03:38:26.432Z,8.57
2018-04-17T03:39:26.426Z,8.61
2018-04-17T03:40:26.419Z,8.42
2018-04-17T03:41:26.411Z,8.40
2018-04-17T03:42:26.405Z,8.45
2018-04-17T03:43:26.397Z,8.34
2018-04-17T03:44:26.391Z,8.34
2018-04-17T03:45:26.386Z,8.39
2018-04-17T03:46:26.380Z,8.36
2018-04-17T03:47:26.370Z,8.39
2018-04-17T03:48:26.362Z,8.32
2018-04-17T03:49:26.359Z,8.31
2018-04-17T03:50:26.348Z,8.31
2018-04-17T03:51:26.357Z,8.28
2018-04-17T03:52:26.338Z,8.27
2018-04-17T03:53:26.330Z,8.31
2018-04-17T03:54:26.323Z,8.28
2018-04-17T03:55:26.312Z,8.34
2018-04-17T03:56:26.306Z,8.28
2018-04-17T03:57:26.303Z,8.24
2018-04-17T03:58:26.299Z,8.18
2018-04-17T03:59:26.286Z,8.12
2018-04-17T04:00:26.278Z,8.25
2018-04-17T04:01:26.271Z,8.13
2018-04-17T04:02:26.278Z,8.04
2018-04-17T04:03:26.257Z,8.04
2018-04-17T04:04:26.251Z,8.06
2018-04-17T04:05:26.242Z,8.03
2018-04-17T04:06:26.235Z,8.02
2018-04-17T04:07:26.230Z,8.04
2018-04-17T04:08:26.222Z,8.09
2018-04-17T04:09:26.215Z,8.13
2018-04-17T04:10:26.207Z,8.04
2018-04-17T04:11:26.204Z,8.09
2018-04-17T04:12:26.198Z,8.09
2018-04-17T04:13:26.185Z,8.03
2018-04-17T04:14:26.179Z,8.13
2018-04-17T04:15:26.178Z,8.12
2018-04-17T04:16:26.169Z,8.07
2018-04-17T04:17:26.156Z,8.03
2018-04-17T04:18:26.152Z,8.07
2018-04-17T04:19:26.144Z,8.09
2018-04-17T04:20:26.141Z,8.13
2018-04-17T04:21:26.128Z,8.06
2018-04-17T04:22:26.121Z,8.12
2018-04-17T04:23:26.116Z,8.17
2018-04-17T04:24:26.108Z,8.13
2018-04-17T04:25:26.103Z,8.13
2018-04-17T04:26:26.097Z,8.06
2018-04-17T04:27:26.090Z,8.03
2018-04-17T04:28:26.079Z,7.96
2018-04-17T04:29:26.075Z,8.04
2018-04-17T04:30:26.068Z,8.02
2018-04-17T04:31:26.057Z,8.00
2018-04-17T04:32:26.059Z,7.94
2018-04-17T04:33:26.042Z,7.96
2018-04-17T04:34:26.036Z,7.99
2018-04-17T04:35:26.034Z,7.99
2018-04-17T04:36:26.022Z,7.96
2018-04-17T04:37:26.014Z,8.00
2018-04-17T04:38:26.008Z,7.91
2018-04-17T04:39:26.000Z,7.89
2018-04-17T04:40:25.996Z,7.94
2018-04-17T04:41:25.985Z,7.91
2018-04-17T04:42:25.979Z,7.94
2018-04-17T04:43:25.979Z,7.94
2018-04-17T04:44:25.969Z,8.09
2018-04-17T04:45:25.957Z,8.02
2018-04-17T04:46:25.951Z,8.10
2018-04-17T04:47:25.951Z,8.02
2018-04-17T04:48:25.944Z,8.12
2018-04-17T04:49:25.929Z,8.17
2018-04-17T04:50:25.921Z,8.10
2018-04-17T04:51:25.914Z,8.20
2018-04-17T04:52:25.907Z,8.28
2018-04-17T04:53:25.899Z,8.32
2018-04-17T04:54:25.892Z,8.32
2018-04-17T04:55:25.890Z,8.36
2018-04-17T04:56:25.882Z,8.49
2018-04-17T04:57:25.872Z,8.45
2018-04-17T04:58:25.864Z,8.47
2018-04-17T04:59:25.882Z,8.57
2018-04-17T05:00:25.861Z,8.57
2018-04-17T05:01:25.843Z,8.58
2018-04-17T05:02:25.836Z,8.67
2018-04-17T05:03:25.830Z,8.71
2018-04-17T05:04:25.825Z,8.73
2018-04-17T05:05:25.816Z,8.82
2018-04-17T05:06:25.810Z,8.85
2018-04-17T05:07:25.808Z,9.01
2018-04-17T05:08:25.800Z,9.17
2018-04-17T05:09:25.794Z,9.50
2018-04-17T05:10:25.786Z,9.74
2018-04-17T05:11:25.775Z,10.10
2018-04-17T05:12:25.770Z,10.29
2018-04-17T05:13:25.769Z,10.57
2018-04-17T05:14:25.757Z,10.87
2018-04-17T05:15:25.750Z,11.21
2018-04-17T05:16:25.744Z,11.31
2018-04-17T05:17:25.738Z,11.60
2018-04-17T05:18:25.732Z,11.93
2018-04-17T05:19:25.726Z,11.98
2018-04-17T05:20:25.722Z,12.30
2018-04-17T05:21:25.718Z,12.58
2018-04-17T05:22:25.713Z,12.88
2018-04-17T05:23:25.704Z,13.10
2018-04-17T05:24:25.699Z,13.36
2018-04-17T05:25:25.692Z,13.65
2018-04-17T05:26:25.687Z,13.98
2018-04-17T05:27:25.687Z,14.23
2018-04-17T05:28:25.694Z,14.54
2018-04-17T05:29:25.677Z,14.83
2018-04-17T05:30:25.670Z,15.16
2018-04-17T05:31:25.665Z,15.38
2018-04-17T05:32:25.710Z,15.60
2018-04-17T05:33:25.656Z,15.80
2018-04-17T05:34:25.655Z,15.96
2018-04-17T05:35:25.651Z,16.23
2018-04-17T05:36:25.647Z,16.40
2018-04-17T05:37:25.642Z,16.55
2018-04-17T05:38:25.639Z,16.81
2018-04-17T05:39:25.640Z,17.00
2018-04-17T05:40:25.640Z,17.24
2018-04-17T05:41:25.635Z,17.36
2018-04-17T05:42:25.644Z,17.60
2018-04-17T05:43:25.632Z,17.74
2018-04-17T05:44:25.700Z,18.17
2018-04-17T05:45:25.623Z,18.23
2018-04-17T05:46:25.621Z,18.44
2018-04-17T05:47:25.634Z,18.72
2018-04-17T05:48:25.618Z,18.64
2018-04-17T05:49:25.622Z,18.86
2018-04-17T05:50:25.618Z,19.05
2018-04-17T05:51:25.617Z,19.40
2018-04-17T05:52:25.615Z,19.75
2018-04-17T05:53:25.621Z,19.87
2018-04-17T05:54:25.616Z,20.02
2018-04-17T05:55:25.613Z,20.26
2018-04-17T05:56:25.617Z,20.48
2018-04-17T05:57:25.613Z,20.60
2018-04-17T05:58:25.613Z,20.68
2018-04-17T05:59:25.629Z,20.85
2018-04-17T06:00:25.613Z,20.94
2018-04-17T06:01:25.618Z,21.16
2018-04-17T06:02:25.619Z,21.08
2018-04-17T06:03:25.614Z,21.27
2018-04-17T06:04:25.642Z,21.49
2018-04-17T06:05:25.621Z,21.56
2018-04-17T06:06:25.622Z,21.66
2018-04-17T06:07:25.620Z,21.89
2018-04-17T06:08:25.623Z,22.05
2018-04-17T06:09:25.652Z,22.39
2018-04-17T06:10:25.624Z,22.45
2018-04-17T06:11:25.626Z,22.52
2018-04-17T06:12:25.630Z,22.52
2018-04-17T06:13:25.632Z,22.39
2018-04-17T06:14:25.634Z,21.52
2018-04-17T06:15:25.636Z,20.44
2018-04-17T06:16:25.644Z,20.38
2018-04-17T06:17:25.641Z,19.76
2018-04-17T06:18:25.644Z,19.87
2018-04-17T06:19:25.652Z,19.34
2018-04-17T06:20:25.656Z,19.67
2018-04-17T06:21:25.653Z,19.80
2018-04-17T06:22:25.657Z,20.51
2018-04-17T06:23:25.665Z,20.72
2018-04-17T06:24:25.672Z,20.46
2018-04-17T06:25:25.668Z,20.66
2018-04-17T06:26:25.677Z,20.46
2018-04-17T06:27:25.677Z,20.64
2018-04-17T06:28:25.680Z,20.30
2018-04-17T06:29:25.685Z,20.42
2018-04-17T06:30:25.689Z,20.96
2018-04-17T06:31:25.693Z,21.18
2018-04-17T06:32:25.699Z,21.34
2018-04-17T06:33:25.706Z,21.59
2018-04-17T06:34:25.710Z,22.11
2018-04-17T06:35:25.711Z,21.49
2018-04-17T06:36:25.718Z,20.79
2018-04-17T06:37:25.726Z,21.67
2018-04-17T06:38:25.732Z,21.82
2018-04-17T06:39:25.733Z,22.20
2018-04-17T06:40:25.737Z,22.63
2018-04-17T06:41:25.776Z,23.00
2018-04-17T06:42:25.749Z,23.50
2018-04-17T06:43:25.754Z,23.79
2018-04-17T06:44:25.759Z,22.66
2018-04-17T06:45:25.764Z,22.67
2018-04-17T06:46:25.771Z,22.63
2018-04-17T06:47:25.790Z,23.00
2018-04-17T06:48:25.787Z,22.97
2018-04-17T06:49:25.787Z,21.56
2018-04-17T06:50:25.794Z,21.67
2018-04-17T06:51:25.804Z,21.21
2018-04-17T06:52:25.813Z,21.06
2018-04-17T06:53:25.814Z,21.15
2018-04-17T06:54:25.819Z,21.05
2018-04-17T06:55:25.831Z,20.48
2018-04-17T06:56:25.837Z,20.51
2018-04-17T06:57:25.839Z,20.64
2018-04-17T06:58:25.847Z,21.11
2018-04-17T06:59:25.854Z,20.85
2018-04-17T07:00:25.861Z,21.31
2018-04-17T07:01:25.867Z,21.86
2018-04-17T07:02:25.876Z,21.58
2018-04-17T07:03:25.886Z,21.58
2018-04-17T07:04:25.895Z,21.68
2018-04-17T07:05:25.899Z,21.79
2018-04-17T07:06:25.904Z,21.64
2018-04-17T07:07:25.911Z,21.13
2018-04-17T07:08:25.919Z,21.70
2018-04-17T07:09:25.930Z,21.73
2018-04-17T07:10:25.938Z,21.33
2018-04-17T07:11:25.945Z,20.88
2018-04-17T07:12:25.951Z,21.38
2018-04-17T07:13:25.957Z,21.42
2018-04-17T07:14:25.968Z,22.15
2018-04-17T07:15:25.978Z,22.64
2018-04-17T07:16:25.986Z,22.54
2018-04-17T07:17:25.993Z,23.54
2018-04-17T07:18:26.003Z,22.82
2018-04-17T07:19:26.006Z,22.96
2018-04-17T07:20:26.015Z,22.75
2018-04-17T07:21:26.024Z,23.19
2018-04-17T07:22:26.032Z,23.45
2018-04-17T07:23:26.041Z,23.90
2018-04-17T07:24:26.050Z,23.78
2018-04-17T07:25:26.059Z,23.63
2018-04-17T07:26:26.068Z,23.38
2018-04-17T07:27:26.077Z,23.63
2018-04-17T07:28:26.086Z,22.85
2018-04-17T07:29:26.125Z,22.70
2018-04-17T07:30:26.108Z,21.77
2018-04-17T07:31:26.114Z,23.03
2018-04-17T07:32:26.124Z,22.72
2018-04-17T07:33:26.130Z,22.21
2018-04-17T07:34:26.142Z,21.93
2018-04-17T07:35:26.154Z,22.15
2018-04-17T07:36:26.166Z,22.49
2018-04-17T07:37:26.169Z,23.67
2018-04-17T07:38:26.180Z,24.63
2018-04-17T07:39:26.190Z,24.55
2018-04-17T07:40:26.226Z,24.42
2018-04-17T07:41:26.210Z,25.27
2018-04-17T07:42:26.219Z,25.76
2018-04-17T07:43:26.231Z,25.66
2018-04-17T07:44:26.241Z,25.09
2018-04-17T07:45:26.249Z,26.12
2018-04-17T07:46:26.260Z,27.35
2018-04-17T07:47:26.285Z,28.17
2018-04-17T07:48:26.289Z,28.24
2018-04-17T07:49:26.296Z,28.60
2018-04-17T07:50:26.358Z,29.41
2018-04-17T07:51:26.315Z,29.66
2018-04-17T07:52:26.326Z,29.76
2018-04-17T07:53:26.339Z,30.36
2018-04-17T07:54:26.349Z,29.47
2018-04-17T07:55:26.361Z,28.98
2018-04-17T07:56:26.373Z,28.03
2018-04-17T07:57:26.385Z,27.02
2018-04-17T07:58:26.403Z,27.83
2018-04-17T07:59:26.413Z,27.09
2018-04-17T08:00:26.422Z,27.20
2018-04-17T08:01:26.439Z,28.06
2018-04-17T08:02:26.450Z,28.85
2018-04-17T08:03:26.459Z,29.30
2018-04-17T08:04:26.474Z,29.11
2018-04-17T08:05:26.489Z,29.27
2018-04-17T08:06:26.499Z,29.67
2018-04-17T08:07:26.514Z,29.82
2018-04-17T08:08:26.526Z,30.06
2018-04-17T08:09:26.544Z,30.49
2018-04-17T08:10:26.556Z,30.07
2018-04-17T08:11:26.565Z,30.85
2018-04-17T08:12:26.579Z,31.10
2018-04-17T08:13:26.606Z,30.76
2018-04-17T08:14:26.611Z,30.73
2018-04-17T08:15:26.621Z,29.69
2018-04-17T08:16:26.636Z,29.49
2018-04-17T08:17:26.650Z,30.38
2018-04-17T08:18:26.664Z,30.13
2018-04-17T08:19:26.679Z,29.21
2018-04-17T08:20:26.696Z,29.73
2018-04-17T08:21:26.710Z,29.30
2018-04-17T08:22:26.728Z,29.79
2018-04-17T08:23:26.739Z,28.32
2018-04-17T08:24:26.758Z,28.88
2018-04-17T08:25:26.767Z,28.36
2018-04-17T08:26:26.786Z,29.11
2018-04-17T08:27:26.801Z,29.88
2018-04-17T08:28:26.820Z,30.01
2018-04-17T08:29:26.830Z,30.83
2018-04-17T08:30:26.844Z,31.13
2018-04-17T08:31:26.863Z,30.48
2018-04-17T08:32:26.877Z,30.07
2018-04-17T08:33:26.888Z,29.00
2018-04-17T08:34:26.906Z,29.73
2018-04-17T08:35:26.920Z,30.21
2018-04-17T08:36:26.937Z,30.32
2018-04-17T08:37:26.951Z,30.38
2018-04-17T08:38:26.968Z,31.04
2018-04-17T08:39:26.983Z,30.79
2018-04-17T08:40:27.000Z,30.48
2018-04-17T08:41:27.018Z,31.37
2018-04-17T08:42:27.034Z,32.09
2018-04-17T08:43:27.048Z,32.50
2018-04-17T08:44:27.064Z,31.88
2018-04-17T08:45:27.083Z,31.07
2018-04-17T08:46:27.100Z,30.34
2018-04-17T08:47:27.112Z,29.51
2018-04-17T08:48:27.128Z,30.03
2018-04-17T08:49:27.149Z,30.45
2018-04-17T08:50:27.161Z,31.10
2018-04-17T08:51:27.177Z,31.84
2018-04-17T08:52:27.194Z,31.19
2018-04-17T08:53:27.210Z,31.35
2018-04-17T08:54:27.261Z,29.86
2018-04-17T08:55:27.246Z,31.41
2018-04-17T08:56:27.262Z,31.68
2018-04-17T08:57:27.279Z,30.86
2018-04-17T08:58:27.296Z,31.78
2018-04-17T08:59:27.318Z,31.60
2018-04-17T09:00:27.333Z,32.62
2018-04-17T09:01:27.345Z,32.59
2018-04-17T09:02:27.363Z,33.43
2018-04-17T09:03:27.386Z,34.18
2018-04-17T09:04:27.410Z,34.05
2018-04-17T09:05:27.415Z,32.93
2018-04-17T09:06:27.434Z,32.65
2018-04-17T09:07:27.450Z,33.35
2018-04-17T09:08:27.470Z,31.98
2018-04-17T09:09:27.486Z,32.53
2018-04-17T09:10:27.513Z,33.84
2018-04-17T09:11:27.524Z,34.53
2018-04-17T09:12:27.540Z,35.55
2018-04-17T09:13:27.562Z,33.44
2018-04-17T09:14:27.580Z,34.81
2018-04-17T09:15:27.594Z,35.12
2018-04-17T09:16:27.613Z,35.25
2018-04-17T09:17:27.634Z,34.30
2018-04-17T09:18:27.656Z,33.78
2018-04-17T09:19:27.668Z,32.93
2018-04-17T09:20:27.687Z,31.76
2018-04-17T09:21:27.705Z,30.21
2018-04-17T09:22:27.724Z,30.63
2018-04-17T09:23:27.743Z,31.13
2018-04-17T09:24:27.762Z,30.86
2018-04-17T09:25:27.779Z,31.69
2018-04-17T09:26:27.797Z,32.71
2018-04-17T09:27:27.857Z,33.02
2018-04-17T09:28:27.838Z,33.52
2018-04-17T09:29:27.852Z,34.30
2018-04-17T09:30:27.871Z,32.44
2018-04-17T09:31:27.893Z,32.95
2018-04-17T09:32:27.914Z,32.07
2018-04-17T09:33:27.925Z,32.53
2018-04-17T09:34:27.955Z,30.93
2018-04-17T09:35:27.966Z,31.97
2018-04-17T09:36:27.985Z,31.34
2018-04-17T09:37:27.998Z,31.16
2018-04-17T09:38:28.017Z,32.49
2018-04-17T09:39:28.037Z,32.85
2018-04-17T09:40:28.058Z,32.58
2018-04-17T09:41:28.074Z,32.56
2018-04-17T09:42:28.101Z,33.52
2018-04-17T09:43:28.111Z,33.82
2018-04-17T09:44:28.128Z,34.16
2018-04-17T09:45:28.150Z,33.86
2018-04-17T09:46:28.169Z,34.01
2018-04-17T09:47:28.184Z,33.65
2018-04-17T09:48:28.204Z,34.73
2018-04-17T09:49:28.226Z,35.06
2018-04-17T09:50:28.248Z,35.13
2018-04-17T09:51:28.261Z,34.90
2018-04-17T09:52:28.281Z,32.50
2018-04-17T09:53:28.300Z,32.72
2018-04-17T09:54:28.320Z,30.73
2018-04-17T09:55:28.341Z,30.37
2018-04-17T09:56:28.359Z,30.38
2018-04-17T09:57:28.424Z,31.69
2018-04-17T09:58:28.394Z,32.25
2018-04-17T09:59:28.413Z,33.11
2018-04-17T10:00:28.432Z,32.16
2018-04-17T10:01:28.449Z,32.56
2018-04-17T10:02:28.469Z,32.53
2018-04-17T10:03:28.491Z,31.82
2018-04-17T10:04:28.509Z,31.34
2018-04-17T10:05:28.523Z,31.31
2018-04-17T10:06:28.543Z,31.04
2018-04-17T10:07:28.564Z,31.56
2018-04-17T10:08:28.582Z,31.56
2018-04-17T10:09:28.595Z,30.93
2018-04-17T10:10:28.615Z,29.76
2018-04-17T10:11:28.632Z,30.22
2018-04-17T10:12:28.651Z,30.86
2018-04-17T10:13:28.669Z,31.41
2018-04-17T10:14:28.686Z,30.40
2018-04-17T10:15:28.708Z,30.38
2018-04-17T10:16:28.726Z,28.69
2018-04-17T10:17:28.751Z,28.80
2018-04-17T10:18:28.759Z,28.24
2018-04-17T10:19:28.777Z,28.46
2018-04-17T10:20:28.793Z,29.20
2018-04-17T10:21:28.811Z,27.06
2018-04-17T10:22:28.873Z,27.65
2018-04-17T10:23:28.846Z,28.45
2018-04-17T10:24:28.864Z,29.26
2018-04-17T10:25:28.881Z,30.34
2018-04-17T10:26:28.898Z,30.86
2018-04-17T10:27:28.919Z,31.12
2018-04-17T10:28:28.937Z,31.01
2018-04-17T10:29:28.954Z,30.93
2018-04-17T10:30:28.977Z,30.46
2018-04-17T10:31:28.985Z,30.16
2018-04-17T10:32:29.004Z,31.34
2018-04-17T10:33:29.019Z,29.99
2018-04-17T10:34:29.037Z,30.61
2018-04-17T10:35:29.054Z,30.06
2018-04-17T10:36:29.071Z,28.70
2018-04-17T10:37:29.089Z,28.87
2018-04-17T10:38:29.105Z,28.76
2018-04-17T10:39:29.123Z,30.22
2018-04-17T10:40:29.140Z,31.13
2018-04-17T10:41:29.160Z,31.59
2018-04-17T10:42:29.178Z,32.39
2018-04-17T10:43:29.192Z,32.58
2018-04-17T10:44:29.210Z,32.50
2018-04-17T10:45:29.229Z,31.30
2018-04-17T10:46:29.291Z,31.74
2018-04-17T10:47:29.264Z,30.30
2018-04-17T10:48:29.281Z,30.53
2018-04-17T10:49:29.293Z,31.19
2018-04-17T10:50:29.310Z,31.92
2018-04-17T10:51:29.327Z,31.56
2018-04-17T10:52:29.346Z,30.86
2018-04-17T10:53:29.365Z,31.15
2018-04-17T10:54:29.379Z,30.07
2018-04-17T10:55:29.395Z,28.13
2018-04-17T10:56:29.415Z,28.74
2018-04-17T10:57:29.428Z,29.26
2018-04-17T10:58:29.445Z,28.61
2018-04-17T10:59:29.465Z,27.39
2018-04-17T11:00:29.480Z,27.48
2018-04-17T11:01:29.496Z,26.53
2018-04-17T11:02:29.513Z,26.84
2018-04-17T11:03:29.525Z,27.49
2018-04-17T11:04:29.542Z,28.43
2018-04-17T11:05:29.558Z,27.23
2018-04-17T11:06:29.572Z,26.79
2018-04-17T11:07:29.588Z,26.57
2018-04-17T11:08:29.605Z,26.71
2018-04-17T11:09:29.620Z,27.18
2018-04-17T11:10:29.635Z,26.78
2018-04-17T11:11:29.652Z,27.11
2018-04-17T11:12:29.666Z,27.52
2018-04-17T11:13:29.684Z,28.30
2018-04-17T11:14:29.700Z,28.21
2018-04-17T11:15:29.715Z,28.36
2018-04-17T11:16:29.726Z,29.20
2018-04-17T11:17:29.741Z,29.76
2018-04-17T11:18:29.756Z,30.48
2018-04-17T11:19:29.771Z,30.54
2018-04-17T11:20:29.788Z,31.09
2018-04-17T11:21:29.806Z,31.01
2018-04-17T11:22:29.821Z,30.22
2018-04-17T11:23:29.831Z,30.08
2018-04-17T11:24:29.847Z,30.11
2018-04-17T11:25:29.871Z,29.39
2018-04-17T11:26:29.879Z,29.05
2018-04-17T11:27:29.890Z,27.13
2018-04-17T11:28:29.905Z,27.35
2018-04-17T11:29:29.916Z,26.53
2018-04-17T11:30:29.930Z,26.06
2018-04-17T11:31:29.944Z,26.23
2018-04-17T11:32:29.956Z,26.03
2018-04-17T11:33:29.968Z,25.26
2018-04-17T11:34:30.021Z,25.45
2018-04-17T11:35:29.992Z,25.17
2018-04-17T11:36:30.004Z,25.49
2018-04-17T11:37:30.014Z,25.67
2018-04-17T11:38:30.025Z,25.86
2018-04-17T11:39:30.039Z,26.04
2018-04-17T11:40:30.053Z,26.21
2018-04-17T11:41:30.054Z,26.27
2018-04-17T11:42:30.063Z,26.28
2018-04-17T11:43:30.078Z,26.41
2018-04-17T11:44:30.086Z,26.23
2018-04-17T11:45:30.091Z,25.22
2018-04-17T11:46:30.100Z,24.04
2018-04-17T11:47:30.109Z,24.09
2018-04-17T11:48:30.117Z,24.02
2018-04-17T11:49:30.123Z,23.89
2018-04-17T11:50:30.131Z,23.84
2018-04-17T11:51:30.141Z,24.06
2018-04-17T11:52:30.147Z,24.00
2018-04-17T11:53:30.157Z,23.97
2018-04-17T11:54:30.164Z,23.93
2018-04-17T11:55:30.168Z,24.15
2018-04-17T11:56:30.175Z,24.44
2018-04-17T11:57:30.242Z,24.53
2018-04-17T11:58:30.192Z,24.80
2018-04-17T11:59:30.194Z,24.87
2018-04-17T12:00:30.201Z,25.04
2018-04-17T12:01:30.206Z,24.87
2018-04-17T12:02:30.215Z,24.59
2018-04-17T12:03:30.219Z,24.31
2018-04-17T12:04:30.225Z,24.29
2018-04-17T12:05:30.231Z,24.45
2018-04-17T12:06:30.242Z,24.27
2018-04-17T12:07:30.244Z,23.94
2018-04-17T12:08:30.250Z,23.90
2018-04-17T12:09:30.255Z,24.00
2018-04-17T12:10:30.262Z,24.12
2018-04-17T12:11:30.270Z,24.51
2018-04-17T12:12:30.277Z,24.79
2018-04-17T12:13:30.277Z,24.90
2018-04-17T12:14:30.283Z,25.05
2018-04-17T12:15:30.293Z,24.94
2018-04-17T12:16:30.298Z,25.04
2018-04-17T12:17:30.298Z,25.19
2018-04-17T12:18:30.307Z,25.38
2018-04-17T12:19:30.310Z,24.60
2018-04-17T12:20:30.315Z,24.48
2018-04-17T12:21:30.320Z,24.33
2018-04-17T12:22:30.325Z,24.42
2018-04-17T12:23:30.335Z,24.51
2018-04-17T12:24:30.340Z,23.97
2018-04-17T12:25:30.341Z,23.35
2018-04-17T12:26:30.346Z,23.34
2018-04-17T12:27:30.353Z,23.42
2018-04-17T12:28:30.358Z,23.52
2018-04-17T12:29:30.362Z,23.49
2018-04-17T12:30:30.366Z,23.39
2018-04-17T12:31:30.375Z,23.41
2018-04-17T12:32:30.376Z,23.53
2018-04-17T12:33:30.380Z,23.75
2018-04-17T12:34:30.418Z,23.67
2018-04-17T12:35:30.397Z,23.41
2018-04-17T12:36:30.399Z,23.52
2018-04-17T12:37:30.405Z,23.72
2018-04-17T12:38:30.408Z,23.92
2018-04-17T12:39:30.409Z,24.05
2018-04-17T12:40:30.414Z,24.36
2018-04-17T12:41:30.419Z,24.33
2018-04-17T12:42:30.423Z,24.41
2018-04-17T12:43:30.428Z,24.49
2018-04-17T12:44:30.432Z,24.68
2018-04-17T12:45:30.440Z,24.23
2018-04-17T12:46:30.442Z,23.94
2018-04-17T12:47:30.448Z,23.82
2018-04-17T12:48:30.451Z,23.42
2018-04-17T12:49:30.459Z,23.26
2018-04-17T12:50:30.464Z,23.06
2018-04-17T12:51:30.464Z,23.06
2018-04-17T12:52:30.470Z,22.81
2018-04-17T12:53:30.475Z,22.82
2018-04-17T12:54:30.478Z,23.01
2018-04-17T12:55:30.488Z,23.14
2018-04-17T12:56:30.492Z,23.41
2018-04-17T12:57:30.493Z,23.50
2018-04-17T12:58:30.496Z,23.56
2018-04-17T12:59:30.501Z,23.74
2018-04-17T13:00:30.504Z,23.90
2018-04-17T13:01:30.508Z,24.02